createdAt,value
2019-03-19T00:01:04.486Z,99.90
2019-03-19T00:03:35.303Z,99.90
2019-03-19T00:06:06.222Z,99.90
2019-03-19T00:08:37.577Z,99.90
2019-03-19T00:11:08.699Z,99.90
2019-03-19T00:13:40.097Z,99.90
2019-03-19T00:16:11.086Z,99.90
2019-03-19T00:18:42.710Z,99.90
2019-03-19T00:21:14.199Z,99.90
2019-03-19T00:23:45.436Z,99.90
2019-03-19T00:26:16.807Z,99.90
2019-03-19T00:28:47.545Z,99.90
2019-03-19T00:31:18.540Z,99.90
2019-03-19T00:33:49.231Z,99.90
2019-03-19T00:36:20.937Z,99.90
2019-03-19T00:38:51.584Z,99.90
2019-03-19T00:41:22.060Z,99.90
2019-03-19T00:43:53.100Z,99.90
2019-03-19T00:46:23.256Z,99.90
2019-03-19T00:48:54.443Z,99.90
2019-03-19T00:51:25.265Z,99.90
2019-03-19T00:53:56.287Z,99.90
2019-03-19T00:56:27.113Z,99.90
2019-03-19T00:58:58.248Z,99.90
2019-03-19T01:01:29.092Z,99.90
2019-03-19T01:03:59.889Z,99.90
2019-03-19T01:06:29.958Z,99.90
2019-03-19T01:09:01.498Z,99.90
2019-03-19T01:11:33.456Z,99.90
2019-03-19T01:14:03.883Z,99.90
2019-03-19T01:16:35.182Z,99.90
2019-03-19T01:19:05.995Z,99.90
2019-03-19T01:21:37.619Z,99.90
2019-03-19T01:24:08.456Z,99.90
2019-03-19T01:26:39.535Z,99.90
2019-03-19T01:29:10.211Z,99.90
2019-03-19T01:31:41.047Z,99.90
2019-03-19T01:34:12.931Z,99.90
2019-03-19T01:36:45.334Z,99.90
2019-03-19T01:39:18.788Z,99.90
2019-03-19T01:41:49.215Z,99.90
2019-03-19T01:44:20.551Z,99.90
2019-03-19T01:46:51.362Z,99.90
2019-03-19T01:49:22.007Z,99.90
2019-03-19T01:51:52.446Z,99.90
2019-03-19T01:54:23.079Z,99.90
2019-03-19T01:56:53.812Z,99.90
2019-03-19T01:59:24.064Z,99.90
2019-03-19T02:01:54.859Z,99.90
2019-03-19T02:04:25.549Z,99.90
2019-03-19T02:06:57.203Z,99.90
2019-03-19T02:09:27.499Z,99.90
2019-03-19T02:11:57.945Z,99.90
2019-03-19T02:14:28.384Z,99.90
2019-03-19T02:17:01.671Z,99.90
2019-03-19T02:19:32.374Z,99.90
2019-03-19T02:22:03.078Z,99.90
2019-03-19T02:24:33.736Z,99.90
2019-03-19T02:27:04.354Z,99.90
2019-03-19T02:29:35.701Z,99.90
2019-03-19T02:32:06.301Z,99.90
2019-03-19T02:34:36.954Z,99.90
2019-03-19T02:37:08.933Z,99.90
2019-03-19T02:39:40.658Z,99.90
2019-03-19T02:42:11.528Z,99.90
2019-03-19T02:44:42.435Z,99.90
2019-03-19T02:47:12.993Z,99.90
2019-03-19T02:49:44.460Z,99.90
2019-03-19T02:52:15.264Z,99.90
2019-03-19T02:54:46.799Z,99.90
2019-03-19T02:57:17.226Z,99.90
2019-03-19T02:59:47.668Z,99.90
2019-03-19T03:02:18.360Z,99.90
2019-03-19T03:04:48.589Z,99.90
2019-03-19T03:07:19.468Z,99.90
2019-03-19T03:09:51.248Z,99.90
2019-03-19T03:12:21.940Z,99.90
2019-03-19T03:14:52.978Z,99.90
2019-03-19T03:17:25.376Z,99.90
2019-03-19T03:19:57.179Z,99.90
2019-03-19T03:22:28.312Z,99.90
2019-03-19T03:24:59.329Z,99.90
2019-03-19T03:27:30.380Z,99.90
2019-03-19T03:30:01.392Z,99.90
2019-03-19T03:32:31.900Z,99.90
2019-03-19T03:35:03.172Z,99.90
2019-03-19T03:37:33.903Z,99.90
2019-03-19T03:40:05.026Z,99.90
2019-03-19T03:42:35.909Z,99.90
2019-03-19T03:45:07.061Z,99.90
2019-03-19T03:47:38.375Z,99.90
2019-03-19T03:50:10.055Z,99.90
2019-03-19T03:52:42.252Z,99.90
2019-03-19T03:55:12.708Z,99.90
2019-03-19T03:57:43.478Z,99.90
2019-03-19T04:00:15.525Z,99.90
2019-03-19T04:02:45.892Z,99.90
2019-03-19T04:05:17.128Z,99.90
2019-03-19T04:07:47.972Z,99.90
2019-03-19T04:10:19.008Z,99.90
2019-03-19T04:12:50.011Z,99.90
2019-03-19T04:15:20.753Z,99.90
2019-03-19T04:17:51.424Z,99.90
2019-03-19T04:20:22.852Z,99.90
2019-03-19T04:22:53.251Z,99.90
2019-03-19T04:25:24.179Z,99.90
2019-03-19T04:27:55.039Z,99.90
2019-03-19T04:30:25.891Z,99.90
2019-03-19T04:32:58.142Z,99.90
2019-03-19T04:35:29.145Z,99.90
2019-03-19T04:37:59.712Z,99.90
2019-03-19T04:40:30.532Z,99.90
2019-03-19T04:43:01.492Z,99.90
2019-03-19T04:45:32.297Z,99.90
2019-03-19T04:48:03.720Z,99.90
2019-03-19T04:50:34.737Z,99.90
2019-03-19T04:53:05.918Z,99.90
2019-03-19T04:55:36.453Z,99.90
2019-03-19T04:58:08.023Z,99.90
2019-03-19T05:00:38.615Z,99.90
2019-03-19T05:03:09.356Z,99.90
2019-03-19T05:05:40.099Z,99.90
2019-03-19T05:08:12.001Z,99.90
2019-03-19T05:10:42.704Z,99.90
2019-03-19T05:13:13.442Z,99.90
2019-03-19T05:15:45.011Z,99.90
2019-03-19T05:18:15.736Z,99.90
2019-03-19T05:20:46.195Z,99.90
2019-03-19T05:23:16.756Z,99.90
2019-03-19T05:25:50.737Z,99.90
2019-03-19T05:28:21.221Z,99.90
2019-03-19T05:30:51.582Z,99.90
2019-03-19T05:33:22.008Z,99.90
2019-03-19T05:35:53.569Z,99.90
2019-03-19T05:38:25.649Z,99.90
2019-03-19T05:40:56.281Z,99.90
2019-03-19T05:43:27.202Z,99.90
2019-03-19T05:45:57.986Z,99.90
2019-03-19T05:48:28.579Z,99.90
2019-03-19T05:50:59.211Z,99.90
2019-03-19T05:53:30.283Z,99.90
2019-03-19T05:56:01.195Z,99.90
2019-03-19T05:58:31.505Z,99.90
2019-03-19T06:01:02.008Z,99.90
2019-03-19T06:03:32.714Z,99.90
2019-03-19T06:06:03.295Z,99.90
2019-03-19T06:08:35.013Z,99.90
2019-03-19T06:11:05.589Z,99.90
2019-03-19T06:13:36.365Z,99.90
2019-03-19T06:16:09.759Z,99.90
2019-03-19T06:18:41.103Z,99.90
2019-03-19T06:21:11.505Z,99.90
2019-03-19T06:23:42.986Z,99.90
2019-03-19T06:26:14.273Z,99.90
2019-03-19T06:28:44.622Z,99.90
2019-03-19T06:31:15.317Z,99.90
2019-03-19T06:33:48.119Z,99.90
2019-03-19T06:36:18.390Z,99.90
2019-03-19T06:38:49.744Z,99.90
2019-03-19T06:41:20.639Z,99.90
2019-03-19T06:43:52.141Z,99.90
2019-03-19T06:46:23.501Z,99.90
2019-03-19T06:48:54.765Z,99.90
2019-03-19T06:51:25.712Z,99.90
2019-03-19T06:53:56.538Z,99.90
2019-03-19T06:56:27.271Z,99.90
2019-03-19T06:58:58.749Z,99.90
2019-03-19T07:01:29.672Z,99.90
2019-03-19T07:04:00.819Z,99.90
2019-03-19T07:06:31.183Z,99.90
2019-03-19T07:09:01.594Z,99.90
2019-03-19T07:11:32.519Z,99.90
2019-03-19T07:14:03.226Z,99.90
2019-03-19T07:16:34.216Z,99.90
2019-03-19T07:19:07.149Z,99.90
2019-03-19T07:21:37.761Z,99.90
2019-03-19T07:24:08.406Z,99.90
2019-03-19T07:26:39.161Z,99.90
2019-03-19T07:29:09.910Z,99.90
2019-03-19T07:31:40.904Z,99.90
2019-03-19T07:34:11.707Z,99.90
2019-03-19T07:36:42.001Z,99.90
2019-03-19T07:39:12.419Z,99.90
2019-03-19T07:41:43.480Z,99.90
2019-03-19T07:44:14.015Z,99.90
2019-03-19T07:46:46.035Z,99.90
2019-03-19T07:49:16.638Z,99.90
2019-03-19T07:51:47.023Z,99.90
2019-03-19T07:54:18.065Z,99.90
2019-03-19T07:56:49.017Z,99.90
2019-03-19T07:59:21.120Z,99.90
2019-03-19T08:01:51.827Z,99.90
2019-03-19T08:04:23.022Z,99.90
2019-03-19T08:06:53.521Z,99.90
2019-03-19T08:09:26.988Z,99.90
2019-03-19T08:11:57.596Z,99.10
2019-03-19T08:14:29.401Z,99.90
2019-03-19T08:17:00.237Z,96.70
2019-03-19T08:19:30.874Z,96.10
2019-03-19T08:22:01.257Z,99.20
2019-03-19T08:24:32.127Z,99.80
2019-03-19T08:27:02.679Z,99.90
2019-03-19T08:29:34.652Z,99.90
2019-03-19T08:32:05.242Z,99.40
2019-03-19T08:34:36.380Z,99.90
2019-03-19T08:37:07.598Z,96.80
2019-03-19T08:39:38.051Z,91.90
2019-03-19T08:42:08.083Z,93.10
2019-03-19T08:44:39.122Z,93.70
2019-03-19T08:47:09.657Z,91.40
2019-03-19T08:49:40.602Z,90.10
2019-03-19T08:52:11.418Z,91.40
2019-03-19T08:54:41.910Z,92.60
2019-03-19T08:57:12.605Z,92.90
2019-03-19T08:59:42.968Z,93.90
2019-03-19T09:02:13.439Z,97.90
2019-03-19T09:04:44.259Z,96.80
2019-03-19T09:07:15.139Z,97.20
2019-03-19T09:09:45.755Z,95.70
2019-03-19T09:12:15.775Z,96.40
2019-03-19T09:14:46.555Z,97.30
2019-03-19T09:17:17.926Z,96.20
2019-03-19T09:19:48.583Z,97.70
2019-03-19T09:22:19.952Z,97.50
2019-03-19T09:24:52.194Z,99.40
2019-03-19T09:27:23.380Z,99.90
2019-03-19T09:29:54.032Z,99.90
2019-03-19T09:32:24.655Z,99.90
2019-03-19T09:34:55.138Z,99.90
2019-03-19T09:37:26.013Z,99.90
2019-03-19T09:39:57.001Z,99.90
2019-03-19T09:42:28.445Z,99.90
2019-03-19T09:44:58.886Z,99.90
2019-03-19T09:47:29.849Z,99.90
2019-03-19T09:50:00.806Z,99.90
2019-03-19T09:52:31.900Z,99.90
2019-03-19T09:55:03.507Z,99.90
2019-03-19T09:57:34.166Z,99.90
2019-03-19T10:00:06.363Z,99.90
2019-03-19T10:02:37.391Z,99.90
2019-03-19T10:05:08.648Z,99.90
2019-03-19T10:07:39.245Z,99.90
2019-03-19T10:10:10.356Z,99.90
2019-03-19T10:12:40.789Z,99.90
2019-03-19T10:15:12.036Z,99.90
2019-03-19T10:17:42.871Z,99.90
2019-03-19T10:20:17.556Z,99.90
2019-03-19T10:22:48.641Z,99.90
2019-03-19T10:25:18.870Z,99.90
2019-03-19T10:27:49.723Z,99.90
2019-03-19T10:30:21.915Z,99.90
2019-03-19T10:32:52.699Z,99.90
2019-03-19T10:35:24.311Z,99.90
2019-03-19T10:37:54.709Z,99.90
2019-03-19T10:40:25.457Z,99.90
2019-03-19T10:42:55.756Z,99.90
2019-03-19T10:45:26.328Z,99.90
2019-03-19T10:47:57.999Z,99.90
2019-03-19T10:50:28.573Z,99.90
2019-03-19T10:52:59.351Z,99.90
2019-03-19T10:55:30.842Z,99.90
2019-03-19T10:58:10.689Z,99.90
2019-03-19T11:00:34.317Z,99.90
2019-03-19T11:03:05.594Z,99.90
2019-03-19T11:05:36.121Z,99.90
2019-03-19T11:08:06.581Z,99.90
2019-03-19T11:10:37.384Z,99.90
2019-03-19T11:13:07.857Z,99.90
2019-03-19T11:15:38.561Z,99.90
2019-03-19T11:18:09.021Z,99.90
2019-03-19T11:20:39.606Z,99.90
2019-03-19T11:23:10.549Z,99.90
2019-03-19T11:25:42.052Z,99.90
2019-03-19T11:28:13.899Z,99.90
2019-03-19T11:30:44.542Z,99.90
2019-03-19T11:33:16.262Z,99.90
2019-03-19T11:35:46.938Z,99.90
2019-03-19T11:38:17.714Z,99.90
2019-03-19T11:40:49.439Z,99.90
2019-03-19T11:43:20.697Z,99.90
2019-03-19T11:45:51.479Z,99.90
2019-03-19T11:48:22.335Z,99.90
2019-03-19T11:50:52.952Z,99.90
2019-03-19T11:53:23.438Z,99.50
2019-03-19T11:55:53.985Z,97.00
2019-03-19T11:58:24.999Z,97.60
2019-03-19T12:00:58.517Z,95.30
2019-03-19T12:03:29.541Z,96.50
2019-03-19T12:06:00.300Z,95.20
2019-03-19T12:08:31.126Z,95.90
2019-03-19T12:11:02.504Z,96.00
2019-03-19T12:13:32.865Z,96.80
2019-03-19T12:16:05.574Z,95.30
2019-03-19T12:18:36.200Z,94.70
2019-03-19T12:21:06.819Z,93.90
2019-03-19T12:23:37.756Z,92.30
2019-03-19T12:26:08.843Z,92.40
2019-03-19T12:28:39.991Z,91.70
2019-03-19T12:31:10.595Z,81.50
2019-03-19T12:33:41.621Z,79.00
2019-03-19T12:36:12.309Z,77.10
2019-03-19T12:38:42.837Z,76.00
2019-03-19T12:41:13.680Z,77.20
2019-03-19T12:43:44.470Z,75.80
2019-03-19T12:46:14.993Z,77.60
2019-03-19T12:48:45.629Z,79.80
2019-03-19T12:51:17.097Z,83.20
2019-03-19T12:53:47.800Z,86.00
2019-03-19T12:56:18.459Z,83.60
2019-03-19T12:58:50.332Z,85.50
2019-03-19T13:01:21.503Z,81.70
2019-03-19T13:03:52.679Z,80.50
2019-03-19T13:06:23.147Z,81.70
2019-03-19T13:08:56.007Z,71.50
2019-03-19T13:11:27.207Z,69.80
2019-03-19T13:13:57.946Z,71.50
2019-03-19T13:16:28.905Z,71.60
2019-03-19T13:18:59.907Z,67.10
2019-03-19T13:21:30.709Z,65.10
2019-03-19T13:24:01.088Z,59.00
2019-03-19T13:26:31.708Z,60.10
2019-03-19T13:29:02.175Z,61.90
2019-03-19T13:31:33.901Z,62.70
2019-03-19T13:34:04.481Z,62.80
2019-03-19T13:36:35.357Z,68.30
2019-03-19T13:39:08.710Z,67.70
2019-03-19T13:41:41.020Z,68.00
2019-03-19T13:44:12.050Z,72.50
2019-03-19T13:46:43.982Z,71.30
2019-03-19T13:49:14.579Z,70.30
2019-03-19T13:51:45.111Z,72.20
2019-03-19T13:54:16.878Z,73.80
2019-03-19T13:56:47.817Z,72.70
2019-03-19T13:59:18.369Z,72.30
2019-03-19T14:01:50.875Z,70.90
2019-03-19T14:04:23.108Z,67.10
2019-03-19T14:06:53.937Z,68.10
2019-03-19T14:09:25.679Z,67.90
2019-03-19T14:11:56.919Z,68.10
2019-03-19T14:14:28.641Z,64.90
2019-03-19T14:17:00.995Z,62.00
2019-03-19T14:19:31.414Z,62.30
2019-03-19T14:22:02.392Z,58.90
2019-03-19T14:24:33.187Z,58.60
2019-03-19T14:27:03.963Z,59.40
2019-03-19T14:29:35.269Z,64.30
2019-03-19T14:32:06.565Z,63.60
2019-03-19T14:34:37.378Z,68.10
2019-03-19T14:37:08.295Z,68.50
2019-03-19T14:39:40.378Z,66.90
2019-03-19T14:42:11.639Z,67.60
2019-03-19T14:44:43.902Z,70.40
2019-03-19T14:47:15.166Z,70.00
2019-03-19T14:49:47.764Z,71.00
2019-03-19T14:52:18.027Z,72.20
2019-03-19T14:54:48.681Z,69.20
2019-03-19T14:57:19.161Z,70.60
2019-03-19T14:59:50.765Z,67.50
2019-03-19T15:02:22.341Z,69.00
2019-03-19T15:04:53.246Z,68.30
2019-03-19T15:07:24.801Z,68.10
2019-03-19T15:09:57.548Z,66.40
2019-03-19T15:12:27.975Z,67.80
2019-03-19T15:14:58.376Z,67.00
2019-03-19T15:17:28.857Z,68.60
2019-03-19T15:19:59.399Z,68.10
2019-03-19T15:22:32.817Z,66.20
2019-03-19T15:25:02.787Z,64.20
2019-03-19T15:27:33.383Z,64.30
2019-03-19T15:30:04.246Z,65.60
2019-03-19T15:32:34.715Z,66.80
2019-03-19T15:35:08.886Z,68.20
2019-03-19T15:37:40.161Z,69.30
2019-03-19T15:40:14.353Z,71.90
2019-03-19T15:42:45.625Z,71.70
2019-03-19T15:45:16.887Z,72.40
2019-03-19T15:47:48.000Z,75.10
2019-03-19T15:50:19.685Z,74.30
2019-03-19T15:52:50.390Z,75.70
2019-03-19T15:55:21.440Z,75.50
2019-03-19T15:57:52.639Z,77.00
2019-03-19T16:00:23.515Z,78.40
2019-03-19T16:02:54.306Z,79.70
2019-03-19T16:05:25.911Z,79.80
2019-03-19T16:07:56.805Z,80.20
2019-03-19T16:10:28.317Z,79.80
2019-03-19T16:13:00.267Z,79.90
2019-03-19T16:15:31.286Z,80.00
2019-03-19T16:18:02.734Z,81.20
2019-03-19T16:20:34.599Z,81.80
2019-03-19T16:23:05.946Z,81.40
2019-03-19T16:25:37.553Z,83.00
2019-03-19T16:28:08.328Z,84.40
2019-03-19T16:30:39.426Z,84.20
2019-03-19T16:33:10.614Z,85.90
2019-03-19T16:35:41.626Z,85.30
2019-03-19T16:38:13.482Z,86.60
2019-03-19T16:40:45.855Z,88.60
2019-03-19T16:43:16.985Z,90.40
2019-03-19T16:45:47.564Z,89.40
2019-03-19T16:48:18.908Z,90.60
2019-03-19T16:50:50.061Z,92.40
2019-03-19T16:53:21.058Z,92.30
2019-03-19T16:55:52.095Z,92.60
2019-03-19T16:58:23.027Z,93.80
2019-03-19T17:00:54.412Z,96.80
2019-03-19T17:03:25.748Z,96.20
2019-03-19T17:05:56.703Z,96.30
2019-03-19T17:08:27.766Z,96.40
2019-03-19T17:10:58.577Z,96.50
2019-03-19T17:13:29.343Z,96.60
2019-03-19T17:16:01.577Z,96.90
2019-03-19T17:18:33.290Z,97.30
2019-03-19T17:21:05.152Z,98.60
2019-03-19T17:23:36.534Z,99.50
2019-03-19T17:26:07.202Z,99.90
2019-03-19T17:28:38.231Z,99.90
2019-03-19T17:31:08.849Z,99.90
2019-03-19T17:33:40.274Z,99.90
2019-03-19T17:36:11.759Z,99.90
2019-03-19T17:38:42.663Z,99.90
2019-03-19T17:41:14.052Z,99.90
2019-03-19T17:43:47.211Z,99.90
2019-03-19T17:46:18.968Z,99.90
2019-03-19T17:48:52.252Z,99.90
2019-03-19T17:51:22.682Z,99.90
2019-03-19T17:53:54.115Z,99.90
2019-03-19T17:56:25.789Z,99.90
2019-03-19T17:58:59.127Z,99.90
2019-03-19T18:01:30.717Z,99.90
2019-03-19T18:04:02.268Z,99.90
2019-03-19T18:06:33.516Z,99.90
2019-03-19T18:09:06.687Z,99.90
2019-03-19T18:11:39.021Z,99.90
2019-03-19T18:14:10.697Z,99.90
2019-03-19T18:16:42.108Z,99.90
2019-03-19T18:19:14.748Z,99.90
2019-03-19T18:21:46.765Z,99.90
2019-03-19T18:24:18.324Z,99.90
2019-03-19T18:26:50.661Z,99.90
2019-03-19T18:29:23.035Z,99.90
2019-03-19T18:31:55.555Z,99.90
2019-03-19T18:34:28.827Z,99.90
2019-03-19T18:37:00.814Z,99.90
2019-03-19T18:39:31.953Z,99.90
2019-03-19T18:42:03.418Z,99.90
2019-03-19T18:44:34.808Z,99.90
2019-03-19T18:47:06.142Z,99.90
2019-03-19T18:49:39.506Z,99.90
2019-03-19T18:52:11.337Z,99.90
2019-03-19T18:54:43.068Z,99.90
2019-03-19T18:57:15.422Z,99.90
2019-03-19T18:59:47.298Z,99.90
2019-03-19T19:02:19.949Z,99.90
2019-03-19T19:04:51.268Z,99.90
2019-03-19T19:07:23.047Z,99.90
2019-03-19T19:09:54.629Z,99.90
2019-03-19T19:12:26.270Z,99.90
2019-03-19T19:14:57.092Z,99.90
2019-03-19T19:17:28.745Z,99.90
2019-03-19T19:19:59.647Z,99.90
2019-03-19T19:22:30.575Z,99.90
2019-03-19T19:25:02.913Z,99.90
2019-03-19T19:27:35.150Z,99.90
2019-03-19T19:30:07.824Z,99.90
2019-03-19T19:32:39.289Z,99.90
2019-03-19T19:35:13.774Z,99.90
2019-03-19T19:37:46.526Z,99.90
2019-03-19T19:40:17.892Z,99.90
2019-03-19T19:42:50.862Z,99.90
2019-03-19T19:45:23.336Z,99.90
2019-03-19T19:47:54.329Z,99.90
2019-03-19T19:50:27.984Z,99.90
2019-03-19T19:53:02.272Z,99.90
2019-03-19T19:55:33.888Z,99.90
2019-03-19T19:58:05.913Z,99.90
2019-03-19T20:00:38.533Z,99.90
2019-03-19T20:03:12.608Z,99.90
2019-03-19T20:05:44.345Z,99.90
2019-03-19T20:08:16.317Z,99.90
2019-03-19T20:10:48.177Z,99.90
2019-03-19T20:13:23.164Z,99.90
2019-03-19T20:15:54.459Z,99.90
2019-03-19T20:18:26.866Z,99.90
2019-03-19T20:20:59.674Z,99.90
2019-03-19T20:23:31.984Z,99.90
2019-03-19T20:26:03.363Z,99.90
2019-03-19T20:28:34.932Z,99.90
2019-03-19T20:31:09.009Z,99.90
2019-03-19T20:33:41.070Z,99.90
2019-03-19T20:36:12.165Z,99.90
2019-03-19T20:38:43.796Z,99.90
2019-03-19T20:41:16.289Z,99.90
2019-03-19T20:43:48.264Z,99.90
2019-03-19T20:46:21.484Z,99.90
2019-03-19T20:48:53.479Z,99.90
2019-03-19T20:51:25.018Z,99.90
2019-03-19T20:53:56.192Z,99.90
2019-03-19T20:59:05.731Z,99.90
2019-03-19T21:01:37.476Z,99.90
2019-03-19T21:04:08.732Z,99.90
2019-03-19T21:06:40.773Z,99.90
2019-03-19T21:09:12.804Z,99.90
2019-03-19T21:11:43.987Z,99.90
2019-03-19T21:14:14.834Z,99.90
2019-03-19T21:16:46.937Z,99.90
2019-03-19T21:19:19.559Z,99.90
2019-03-19T21:21:52.446Z,99.90
2019-03-19T21:24:23.564Z,99.90
2019-03-19T21:26:54.561Z,99.90
2019-03-19T21:29:26.024Z,99.90
2019-03-19T21:31:57.571Z,99.90
2019-03-19T21:34:28.621Z,99.90
2019-03-19T21:36:59.350Z,99.90
2019-03-19T21:39:30.318Z,99.90
2019-03-19T21:42:01.275Z,99.90
2019-03-19T21:44:32.030Z,99.90
2019-03-19T21:47:03.358Z,99.90
2019-03-19T21:49:34.338Z,99.90
2019-03-19T21:52:04.423Z,99.90
2019-03-19T21:55:17.836Z,99.90
2019-03-19T21:57:54.746Z,99.90
2019-03-19T22:01:08.091Z,99.90
2019-03-19T22:03:39.985Z,99.90
2019-03-19T22:06:10.587Z,99.90
2019-03-19T22:08:42.755Z,99.90
2019-03-19T22:11:13.968Z,99.90
2019-03-19T22:13:44.076Z,99.90
2019-03-19T22:16:14.590Z,99.90
2019-03-19T22:18:45.384Z,99.90
2019-03-19T22:21:15.869Z,99.90
2019-03-19T22:23:46.531Z,99.90
2019-03-19T22:26:19.718Z,99.90
2019-03-19T22:28:50.707Z,99.90
2019-03-19T22:31:21.530Z,99.90
2019-03-19T22:33:52.530Z,99.90
2019-03-19T22:36:23.323Z,99.90
2019-03-19T22:38:53.904Z,99.90
2019-03-19T22:41:25.034Z,99.90
2019-03-19T22:43:55.943Z,99.90
2019-03-19T22:46:26.943Z,99.90
2019-03-19T22:48:57.751Z,99.90
2019-03-19T22:51:28.698Z,99.90
2019-03-19T22:53:59.837Z,99.90
2019-03-19T22:56:31.350Z,99.90
2019-03-19T22:59:02.006Z,99.90
2019-03-19T23:01:32.622Z,99.90
2019-03-19T23:04:03.665Z,99.90
2019-03-19T23:06:34.386Z,99.90
2019-03-19T23:09:06.449Z,99.90
2019-03-19T23:11:37.461Z,99.90
2019-03-19T23:14:09.428Z,99.90
2019-03-19T23:16:40.121Z,99.90
2019-03-19T23:19:11.217Z,99.90
2019-03-19T23:21:42.522Z,99.90
2019-03-19T23:24:13.253Z,99.90
2019-03-19T23:26:44.322Z,99.90
2019-03-19T23:29:15.623Z,99.90
2019-03-19T23:31:47.096Z,99.90
2019-03-19T23:34:18.716Z,99.90
2019-03-19T23:36:49.423Z,99.90
2019-03-19T23:39:19.912Z,99.90
2019-03-19T23:41:51.267Z,99.90
2019-03-19T23:44:22.180Z,99.90
2019-03-19T23:46:53.463Z,99.90
2019-03-19T23:49:24.623Z,99.90
2019-03-19T23:51:55.701Z,99.90
2019-03-19T23:54:26.668Z,99.90
2019-03-19T23:56:57.488Z,99.90
2019-03-19T23:59:28.074Z,99.90
